Time;durP1;ratioP1;P1;durP2;ratioP2;P2;SDS_P1;SDS_P2;PMS_P1;PMS_P2;Temp;Humidity;BMP_temperature;BMP_pressure;BME280_temperature;BME280_humidity;BME280_pressure;Samples;Min_cycle;Max_cycle;Signal;HPM_P1;HPM_P2
2023/04/29 07:01:58;;;;;;;1.13;1.13;;;12.90;99.90;16.70;101717.00;;;;5071244;27;20560;-68
2023/04/29 07:04:27;;;;;;;0.20;0.20;;;12.90;99.90;16.70;101715.00;;;;5026833;28;20242;-68
2023/04/29 07:07:13;;;;;;;0.50;0.50;;;13.00;99.90;16.50;101714.00;;;;5080374;28;20604;-68
2023/04/29 07:10:03;;;;;;;0.20;0.20;;;13.10;99.90;16.80;101687.00;;;;5048678;28;20198;-68
2023/04/29 07:12:37;;;;;;;0.43;0.43;;;13.10;99.90;16.70;101720.00;;;;5038907;28;20214;-68
2023/04/29 07:15:12;;;;;;;0.20;0.20;;;13.10;99.90;16.70;101688.00;;;;5049134;28;20284;-68
2023/04/29 07:17:49;;;;;;;0.83;0.83;;;13.20;99.90;16.80;101735.00;;;;5032763;28;20274;-68
2023/04/29 07:21:00;;;;;;;0.60;0.60;;;13.20;99.90;16.60;101737.00;;;;5050212;28;20235;-68
2023/04/29 07:24:44;;;;;;;0.20;0.20;;;13.30;99.90;17.10;101745.00;;;;5027167;28;20198;-68
2023/04/29 07:27:16;;;;;;;0.20;0.20;;;13.30;99.90;17.10;101739.00;;;;4953598;28;20198;-68
2023/04/29 07:29:50;;;;;;;0.20;0.20;;;13.50;99.90;17.20;101743.00;;;;4980063;28;20206;-68
2023/04/29 07:32:37;;;;;;;0.70;0.70;;;13.60;99.90;17.70;101749.00;;;;4972514;28;20355;-68
2023/04/29 07:35:12;;;;;;;0.80;0.80;;;13.80;99.90;17.80;101758.00;;;;4978280;28;20196;-68
2023/04/29 07:37:47;;;;;;;0.20;0.20;;;14.10;99.90;17.40;101754.00;;;;4978488;28;20676;-68
2023/04/29 07:41:02;;;;;;;2.07;1.97;;;13.90;99.90;17.20;101749.00;;;;4972690;28;20214;-68
2023/04/29 07:43:40;;;;;;;0.75;0.75;;;13.90;99.90;17.80;101748.00;;;;4987205;28;20590;-68
2023/04/29 07:46:34;;;;;;;0.20;0.20;;;14.00;99.90;17.40;101766.00;;;;4957292;28;20188;-68
2023/04/29 07:49:59;;;;;;;0.57;0.50;;;13.90;99.90;18.00;101765.00;;;;4981693;28;20263;-68
2023/04/29 07:52:50;;;;;;;0.93;0.83;;;14.10;99.90;17.70;101786.00;;;;4979928;28;20668;-68
2023/04/29 07:56:04;;;;;;;1.77;1.63;;;14.30;99.90;18.40;101787.00;;;;4993260;28;20189;-68
2023/04/29 07:59:11;;;;;;;0.10;0.10;;;14.50;99.90;18.40;101754.00;;;;4978452;28;20782;-68
2023/04/29 08:02:24;;;;;;;0.63;0.63;;;14.70;99.90;17.70;101798.00;;;;4987790;28;20229;-68
2023/04/29 08:05:16;;;;;;;1.70;1.60;;;14.50;99.90;18.00;101804.00;;;;5045235;28;20338;-68
2023/04/29 08:08:09;;;;;;;0.83;0.83;;;14.50;99.90;18.00;101784.00;;;;5031737;28;20182;-68
2023/04/29 08:11:06;;;;;;;0.83;0.83;;;14.40;99.90;17.90;101796.00;;;;5029378;28;20289;-68
2023/04/29 08:14:09;;;;;;;1.90;1.77;;;14.50;99.90;16.40;101794.00;;;;5016699;28;20630;-68
2023/04/29 08:16:51;;;;;;;1.40;1.30;;;14.20;99.90;17.50;101777.00;;;;5012684;28;20200;-68
2023/04/29 08:19:46;;;;;;;3.33;2.93;;;14.10;99.90;16.50;101763.00;;;;5032186;28;20180;-68
2023/04/29 08:22:26;;;;;;;0.20;0.20;;;13.80;99.90;18.20;101776.00;;;;5011835;28;20191;-68
2023/04/29 08:25:04;;;;;;;0.10;0.10;;;14.30;99.90;18.90;101784.00;;;;5017137;28;20243;-68
2023/04/29 08:27:57;;;;;;;1.30;1.03;;;15.00;99.90;19.40;101823.00;;;;5033194;28;20708;-68
2023/04/29 08:30:29;;;;;;;0.43;0.43;;;15.50;99.90;18.80;101826.00;;;;5033110;28;20559;-68
2023/04/29 08:33:07;;;;;;;0.30;0.30;;;15.60;99.90;18.60;101830.00;;;;5017049;28;20191;-68
2023/04/29 08:35:58;;;;;;;0.67;0.67;;;15.40;99.90;19.00;101827.00;;;;5016564;28;20630;-68
2023/04/29 08:38:36;;;;;;;2.83;1.40;;;15.40;99.90;18.50;101825.00;;;;5032846;28;20200;-68
2023/04/29 08:41:23;;;;;;;1.40;1.40;;;15.20;99.90;18.60;101830.00;;;;5032990;28;20216;-68
2023/04/29 08:43:57;;;;;;;6.20;4.17;;;15.10;99.90;17.90;101853.00;;;;5021702;28;20195;-68
2023/04/29 08:46:53;;;;;;;0.20;0.20;;;15.20;99.90;18.10;101837.00;;;;5016553;28;20234;-68
2023/04/29 08:49:44;;;;;;;1.83;1.73;;;14.90;99.90;17.70;101820.00;;;;5032500;28;20200;-68
2023/04/29 08:52:27;;;;;;;0.60;0.60;;;14.70;99.90;17.40;101833.00;;;;5008661;28;20266;-68
2023/04/29 08:55:08;;;;;;;3.87;3.33;;;14.70;99.90;17.80;101770.00;;;;4999077;28;20235;-68
2023/04/29 08:58:07;;;;;;;2.50;1.07;;;14.70;99.90;18.70;101832.00;;;;5016185;28;20704;-68
2023/04/29 09:00:57;;;;;;;0.87;0.87;;;15.20;99.90;17.60;101831.00;;;;5013810;28;20650;-68
2023/04/29 09:03:51;;;;;;;0.20;0.20;;;15.10;99.90;18.80;101836.00;;;;5028912;28;20206;-69
2023/04/29 09:06:58;;;;;;;1.13;1.13;;;15.20;99.90;19.30;101855.00;;;;5027009;28;20223;-69
2023/04/29 09:09:40;;;;;;;0.50;0.50;;;15.70;99.90;17.90;101884.00;;;;5028170;28;20210;-68
2023/04/29 09:12:20;;;;;;;1.03;1.03;;;15.50;99.90;17.40;101847.00;;;;5014292;28;20722;-68
2023/04/29 09:15:13;;;;;;;0.83;0.83;;;14.80;99.90;17.70;101864.00;;;;5033364;28;20246;-68
2023/04/29 09:18:08;;;;;;;1.17;1.17;;;14.80;99.90;18.50;101822.00;;;;5032795;28;20213;-69
2023/04/29 09:21:21;;;;;;;0.50;0.50;;;15.10;99.90;17.00;101849.00;;;;5032926;28;20725;-68
2023/04/29 09:23:55;;;;;;;0.40;0.40;;;14.40;99.90;17.50;101832.00;;;;5001900;28;20310;-68
2023/04/29 09:26:44;;;;;;;1.03;1.03;;;14.40;99.90;18.40;101872.00;;;;5033340;28;20231;-69
2023/04/29 09:29:37;;;;;;;0.57;0.57;;;15.10;99.90;17.00;101861.00;;;;5028686;28;20193;-68
2023/04/29 09:32:26;;;;;;;0.70;0.70;;;15.00;99.90;17.30;101845.00;;;;5029866;28;20649;-68
2023/04/29 09:35:27;;;;;;;1.80;1.20;;;14.60;99.90;17.10;101805.00;;;;5033973;28;20204;-68
2023/04/29 09:38:26;;;;;;;3.37;3.23;;;14.40;99.90;18.60;101846.00;;;;5031662;28;20179;-68
2023/04/29 09:41:16;;;;;;;0.60;0.60;;;15.10;99.90;19.20;101865.00;;;;5062128;28;20309;-68
2023/04/29 09:44:07;;;;;;;1.73;1.60;;;15.60;99.90;18.60;101869.00;;;;4996213;28;20279;-68
2023/04/29 09:47:05;;;;;;;0.63;0.63;;;15.60;99.90;17.70;101886.00;;;;5016343;28;20625;-68
2023/04/29 09:49:44;;;;;;;7.17;3.20;;;15.10;99.90;18.90;101884.00;;;;5028023;28;20205;-68
2023/04/29 09:52:29;;;;;;;0.80;0.80;;;15.50;99.90;18.20;101895.00;;;;5016762;28;20239;-68
2023/04/29 09:55:28;;;;;;;0.20;0.20;;;15.40;99.90;18.20;101914.00;;;;5033053;28;20175;-68
2023/04/29 09:58:18;;;;;;;3.73;2.23;;;15.40;99.90;17.80;101901.00;;;;5020702;28;20178;-68
2023/04/29 10:01:12;;;;;;;0.87;0.80;;;15.00;99.90;17.30;101896.00;;;;5030604;28;20224;-68
2023/04/29 10:04:01;;;;;;;0.57;0.57;;;14.70;99.90;18.00;101888.00;;;;5020881;28;20202;-68
2023/04/29 10:07:08;;;;;;;7.10;3.93;;;14.80;99.90;16.30;101902.00;;;;5031876;28;20660;-68
2023/04/29 10:10:06;;;;;;;0.20;0.20;;;14.50;99.90;17.00;101871.00;;;;5031466;28;20286;-68
2023/04/29 10:12:41;;;;;;;1.40;1.30;;;14.30;99.90;18.70;101887.00;;;;5032594;28;20200;-68
2023/04/29 10:15:47;;;;;;;7.07;2.23;;;15.00;99.90;17.00;101911.00;;;;5019985;28;20184;-68
2023/04/29 10:18:57;;;;;;;0.20;0.20;;;14.80;99.90;18.30;101891.00;;;;5030372;28;20209;-68
2023/04/29 10:34:00;;;;;;;0.30;0.30;;;13.90;99.90;17.40;101882.00;;;;5090173;28;20498;-68
2023/04/29 10:36:52;;;;;;;2.07;1.90;;;14.30;99.90;17.20;101824.00;;;;5069230;28;20189;-68
2023/04/29 10:39:50;;;;;;;6.83;0.73;;;14.60;99.90;18.10;101869.00;;;;5082253;28;20182;-68
2023/04/29 10:42:52;;;;;;;1.57;1.37;;;14.80;99.90;19.30;101893.00;;;;5063044;28;20211;-68
2023/04/29 10:45:41;;;;;;;0.20;0.20;;;15.60;99.90;19.90;101921.00;;;;5064673;28;20338;-68
2023/04/29 10:48:23;;;;;;;1.23;1.23;;;16.20;99.90;20.00;101924.00;;;;5064140;28;20185;-68
2023/04/29 10:51:31;;;;;;;1.20;0.97;;;16.30;99.90;19.80;101933.00;;;;5068814;28;20185;-68
2023/04/29 10:54:24;;;;;;;0.30;0.30;;;16.30;99.90;19.80;101934.00;;;;5071753;28;20269;-68
2023/04/29 10:57:22;;;;;;;0.43;0.33;;;16.50;99.90;19.70;101936.00;;;;5053380;28;20201;-68
2023/04/29 11:00:22;;;;;;;0.10;0.10;;;16.50;99.90;21.30;101928.00;;;;5079463;28;20624;-68
2023/04/29 11:03:13;;;;;;;0.77;0.77;;;17.20;99.90;20.90;101940.00;;;;5068171;28;20202;-68
2023/04/29 11:06:24;;;;;;;3.60;2.40;;;17.40;99.90;21.10;101949.00;;;;5068234;28;20225;-68
2023/04/29 11:09:09;;;;;;;0.30;0.30;;;17.60;99.90;21.90;101936.00;;;;5052104;28;20222;-68
2023/04/29 11:12:05;;;;;;;0.20;0.20;;;18.00;99.90;20.90;101957.00;;;;5081146;28;20211;-68
2023/04/29 11:14:50;;;;;;;0.73;0.73;;;17.60;99.90;20.70;101952.00;;;;5058591;28;20280;-68
2023/04/29 11:17:36;;;;;;;0.60;0.60;;;17.20;99.90;19.20;101979.00;;;;5059686;28;20699;-68
2023/04/29 11:21:00;;;;;;;0.30;0.30;;;16.70;99.90;20.10;101980.00;;;;5061879;28;20272;-68
2023/04/29 11:23:44;;;;;;;0.50;0.50;;;16.30;99.90;18.80;101997.00;;;;5069363;28;20656;-68
2023/04/29 11:26:50;;;;;;;0.20;0.20;;;16.20;99.90;19.60;101975.00;;;;5066591;28;20258;-68
2023/04/29 11:29:18;;;;;;;1.13;1.03;;;16.60;99.90;17.80;101961.00;;;;5066279;28;20201;-68
2023/04/29 11:32:14;;;;;;;2.23;2.13;;;16.10;99.90;19.30;101969.00;;;;5081010;28;20230;-68
2023/04/29 11:35:10;;;;;;;1.83;1.70;;;16.10;99.90;19.50;101970.00;;;;5061393;28;20198;-68
2023/04/29 11:38:05;;;;;;;1.50;1.40;;;16.30;99.90;19.50;101987.00;;;;5061938;28;20663;-68
2023/04/29 11:41:00;;;;;;;0.70;0.70;;;16.50;99.90;21.50;101945.00;;;;5026855;28;20675;-68
2023/04/29 11:43:57;;;;;;;4.67;2.37;;;17.30;99.90;20.20;101970.00;;;;4989266;28;20202;-68
2023/04/29 11:47:02;;;;;;;0.50;0.50;;;17.20;99.90;20.30;101963.00;;;;5036576;28;20198;-68
2023/04/29 11:49:37;;;;;;;0.10;0.10;;;17.10;99.90;21.00;101917.00;;;;5066157;28;20204;-69
2023/04/29 11:52:36;;;;;;;0.10;0.10;;;17.30;99.90;22.00;101930.00;;;;5054084;28;20595;-68
2023/04/29 11:55:14;;;;;;;0.83;0.83;;;17.50;99.90;21.10;101941.00;;;;5041527;28;20208;-68
2023/04/29 11:58:09;;;;;;;0.40;0.40;;;17.60;99.90;21.20;101933.00;;;;5050780;28;20184;-68
2023/04/29 12:00:50;;;;;;;1.17;1.07;;;17.50;99.90;20.60;101947.00;;;;5029281;28;20690;-68
2023/04/29 12:03:48;;;;;;;0.10;0.10;;;17.30;99.90;20.30;101968.00;;;;5054380;28;20196;-68
2023/04/29 12:06:28;;;;;;;0.10;0.10;;;16.90;99.90;19.30;101985.00;;;;5041731;28;20207;-68
2023/04/29 12:09:35;;;;;;;1.70;1.60;;;16.50;99.90;19.80;101930.00;;;;5054030;28;20188;-68
2023/04/29 12:12:27;;;;;;;0.10;0.10;;;16.50;99.90;20.70;101959.00;;;;5051808;28;20208;-68
2023/04/29 12:15:04;;;;;;;0.63;0.63;;;16.70;99.90;19.90;101971.00;;;;5053844;28;20179;-68
2023/04/29 12:17:56;;;;;;;2.67;2.47;;;16.70;99.90;20.00;101969.00;;;;5055406;28;20318;-68
2023/04/29 12:21:03;;;;;;;1.47;1.37;;;16.40;99.90;19.70;101970.00;;;;5013300;28;20201;-68
2023/04/29 12:24:00;;;;;;;0.27;0.27;;;16.80;99.90;19.10;101996.00;;;;4995323;28;20212;-68
2023/04/29 12:27:11;;;;;;;1.80;0.97;;;16.30;99.90;18.10;102013.00;;;;5049950;28;20200;-68
2023/04/29 12:30:03;;;;;;;0.20;0.20;;;16.00;99.90;19.70;101975.00;;;;5048922;28;20564;-68
2023/04/29 12:32:41;;;;;;;0.40;0.40;;;16.30;99.90;21.40;101943.00;;;;5055484;28;20243;-68
2023/04/29 12:35:41;;;;;;;3.10;2.00;;;17.10;99.90;22.20;101929.00;;;;5053583;28;20279;-68
2023/04/29 12:38:53;;;;;;;0.47;0.47;;;17.80;99.90;21.20;101952.00;;;;5045430;28;20243;-68
2023/04/29 12:41:42;;;;;;;0.40;0.40;;;18.00;99.90;20.70;101966.00;;;;5054507;28;20279;-68
2023/04/29 12:44:21;;;;;;;1.30;1.23;;;17.60;99.90;20.00;101985.00;;;;5049528;28;20190;-68
2023/04/29 12:47:16;;;;;;;2.57;0.83;;;17.30;99.90;21.50;101959.00;;;;5048046;28;20279;-68
2023/04/29 12:49:55;;;;;;;0.30;0.30;;;17.50;99.90;21.10;101955.00;;;;5054090;28;20211;-68
2023/04/29 12:52:28;;;;;;;3.73;2.50;;;17.50;99.90;20.30;101977.00;;;;5067816;28;20211;-68
2023/04/29 12:54:59;;;;;;;0.70;0.70;;;17.30;99.90;20.00;101987.00;;;;5052052;28;20566;-68
2023/04/29 12:57:38;;;;;;;0.30;0.30;;;17.10;99.90;20.00;101986.00;;;;5054150;28;20185;-68
2023/04/29 13:00:11;;;;;;;2.63;2.47;;;16.70;99.90;19.70;101974.00;;;;5052765;28;20192;-68
2023/04/29 13:02:46;;;;;;;0.20;0.20;;;16.70;99.90;19.40;101960.00;;;;5052858;28;20217;-68
2023/04/29 13:05:18;;;;;;;2.30;1.07;;;16.40;99.90;20.30;101982.00;;;;5053071;28;20199;-68
2023/04/29 13:07:53;;;;;;;0.27;0.27;;;16.70;99.90;20.30;101992.00;;;;5053257;28;20548;-69
2023/04/29 13:10:25;;;;;;;1.00;1.00;;;16.80;99.90;20.70;101994.00;;;;5052152;28;20200;-68
2023/04/29 13:12:56;;;;;;;0.47;0.47;;;17.00;99.90;19.90;101999.00;;;;5053759;28;20226;-68
2023/04/29 13:15:38;;;;;;;0.67;0.67;;;16.90;99.90;20.90;101994.00;;;;5054721;28;20221;-69
2023/04/29 13:18:24;;;;;;;0.40;0.40;;;17.00;99.90;20.80;101963.00;;;;5029243;28;20272;-69
2023/04/29 13:20:58;;;;;;;1.10;0.80;;;17.20;99.90;21.70;101967.00;;;;5032758;28;20599;-69
2023/04/29 13:23:36;;;;;;;1.80;1.47;;;17.60;99.90;20.30;101983.00;;;;5047333;28;20188;-69
2023/04/29 13:26:27;;;;;;;8.30;2.40;;;17.40;99.90;21.20;101981.00;;;;5040819;28;20246;-69
2023/04/29 13:29:19;;;;;;;0.90;0.90;;;17.60;99.90;20.30;101989.00;;;;5054794;28;20196;-69
2023/04/29 13:32:08;;;;;;;0.60;0.60;;;17.80;99.90;21.20;101986.00;;;;4992123;28;20720;-69
2023/04/29 13:34:57;;;;;;;0.10;0.10;;;17.60;99.90;22.10;101960.00;;;;4956624;28;20244;-69
2023/04/29 13:38:02;;;;;;;0.43;0.43;;;18.00;99.90;22.80;101947.00;;;;4945224;28;20275;-69
2023/04/29 13:40:55;;;;;;;2.20;2.00;;;18.70;99.90;20.90;101983.00;;;;5033771;28;20713;-69
2023/04/29 13:43:39;;;;;;;0.10;0.10;;;18.30;99.90;22.70;101954.00;;;;5049349;28;20194;-69
2023/04/29 13:46:27;;;;;;;4.07;2.53;;;18.50;99.90;20.90;101985.00;;;;5050071;28;20265;-68
2023/04/29 13:49:21;;;;;;;4.97;3.27;;;18.20;99.90;20.80;101983.00;;;;5053446;28;20182;-68
2023/04/29 13:52:12;;;;;;;1.23;1.13;;;17.80;99.90;21.00;101999.00;;;;5004696;28;20254;-68
2023/04/29 13:55:16;;;;;;;3.13;2.83;;;17.60;99.90;20.20;102017.00;;;;4972111;28;20203;-68
2023/04/29 13:58:05;;;;;;;0.63;0.63;;;17.30;99.90;21.30;101992.00;;;;4987603;28;20235;-69
2023/04/29 14:01:06;;;;;;;0.10;0.10;;;17.40;99.90;22.30;101963.00;;;;5051138;28;20277;-68
2023/04/29 14:04:12;;;;;;;0.87;0.87;;;18.00;99.90;21.60;101975.00;;;;5068388;28;20563;-68
2023/04/29 14:06:49;;;;;;;0.50;0.50;;;18.10;99.90;20.60;101980.00;;;;5045862;28;20205;-68
2023/04/29 14:09:43;;;;;;;2.23;1.93;;;17.70;99.90;20.30;102014.00;;;;5039843;28;20646;-68
2023/04/29 14:12:41;;;;;;;1.70;1.60;;;17.50;99.90;19.70;101992.00;;;;5051925;28;20688;-68
2023/04/29 14:15:30;;;;;;;0.30;0.30;;;16.90;99.90;20.80;102010.00;;;;5061005;28;20208;-68
2023/04/29 14:18:17;;;;;;;1.80;1.70;;;17.10;99.90;20.20;102021.00;;;;4995437;28;20198;-69
2023/04/29 14:21:15;;;;;;;1.77;0.97;;;17.20;99.90;21.10;102009.00;;;;5042401;28;20202;-69
2023/04/29 14:24:10;;;;;;;0.77;0.77;;;17.10;99.90;20.10;102033.00;;;;5067432;28;20187;-68
2023/04/29 14:27:22;;;;;;;0.47;0.47;;;17.10;99.90;21.50;101993.00;;;;5067945;28;20204;-68
2023/04/29 14:30:26;;;;;;;1.50;1.40;;;17.40;99.90;20.90;102002.00;;;;5035682;28;20187;-68
2023/04/29 14:33:03;;;;;;;0.57;0.57;;;17.70;99.90;21.00;102007.00;;;;5051640;28;20666;-68
2023/04/29 14:35:39;;;;;;;0.67;0.67;;;17.60;99.90;20.40;102019.00;;;;5050085;28;20702;-68
2023/04/29 14:38:26;;;;;;;0.30;0.30;;;17.50;99.90;19.40;102050.00;;;;5033995;28;20227;-68
2023/04/29 14:41:04;;;;;;;0.60;0.60;;;16.80;99.90;20.00;102038.00;;;;5048464;28;20192;-68
2023/04/29 14:43:51;;;;;;;1.67;1.50;;;16.90;99.90;19.70;102043.00;;;;5051880;28;20207;-68
2023/04/29 14:46:22;;;;;;;0.87;0.87;;;17.00;99.90;20.00;102031.00;;;;5048650;28;20682;-68
2023/04/29 14:49:13;;;;;;;0.10;0.10;;;17.00;99.90;21.00;101976.00;;;;5034251;28;20644;-68
2023/04/29 14:51:59;;;;;;;0.10;0.10;;;17.10;99.90;21.70;102013.00;;;;5067967;28;20250;-68
2023/04/29 14:54:38;;;;;;;0.57;0.57;;;17.50;99.90;22.10;101997.00;;;;5051432;28;20251;-68
2023/04/29 14:57:14;;;;;;;0.93;0.93;;;18.10;99.90;21.30;102011.00;;;;5043734;28;20305;-68
2023/04/29 14:59:42;;;;;;;1.38;0.98;;;17.90;99.90;22.30;101993.00;;;;5067955;28;20193;-68
2023/04/29 15:02:25;;;;;;;1.88;1.63;;;18.20;99.90;22.60;101987.00;;;;5051343;28;20255;-68
2023/04/29 15:05:03;;;;;;;0.80;0.80;;;18.80;99.90;21.90;102000.00;;;;5035704;28;20189;-68
2023/04/29 15:07:34;;;;;;;2.20;2.07;;;18.70;99.90;21.50;102018.00;;;;5050231;28;20186;-68
2023/04/29 15:10:08;;;;;;;1.75;0.90;;;18.40;99.90;21.30;102015.00;;;;5048218;28;20183;-68
2023/04/29 15:12:43;;;;;;;1.20;0.83;;;18.20;99.90;20.60;102059.00;;;;5050003;28;20229;-68
2023/04/29 15:15:30;;;;;;;1.43;1.33;;;17.60;99.90;20.00;102063.00;;;;5051053;28;20174;-68
2023/04/29 15:18:01;;;;;;;0.30;0.30;;;17.10;99.90;20.50;102051.00;;;;5046342;28;20198;-68
2023/04/29 15:20:27;;;;;;;1.47;1.47;;;17.10;99.90;21.10;102047.00;;;;5051336;28;20323;-68
2023/04/29 15:22:58;;;;;;;0.10;0.10;;;17.30;99.90;21.60;102037.00;;;;5054387;28;20261;-68
2023/04/29 15:25:25;;;;;;;0.10;0.10;;;17.50;99.90;20.60;102044.00;;;;5052833;28;20185;-68
2023/04/29 15:27:57;;;;;;;3.87;2.17;;;17.40;99.90;20.50;102055.00;;;;5055233;28;20186;-68
2023/04/29 15:30:43;;;;;;;0.73;0.73;;;17.20;99.90;20.70;102055.00;;;;5052654;28;20194;-68
2023/04/29 15:37:31;;;;;;;1.40;1.33;;;17.40;99.90;20.40;102065.00;;;;4967581;28;20607;-68
2023/04/29 15:40:07;;;;;;;0.10;0.10;;;17.10;99.90;21.00;102054.00;;;;5053977;28;20535;-68
2023/04/29 15:42:48;;;;;;;0.50;0.50;;;17.30;99.90;20.60;102056.00;;;;5070776;28;20204;-68
2023/04/29 15:45:20;;;;;;;15.20;2.07;;;17.20;99.90;21.10;102043.00;;;;5038520;28;20243;-68
2023/04/29 15:47:49;;;;;;;0.57;0.57;;;17.40;99.90;20.60;102057.00;;;;5055917;28;20320;-68
2023/04/29 15:50:20;;;;;;;4.03;1.93;;;17.00;99.90;20.20;102068.00;;;;5054374;28;20191;-68
2023/04/29 15:52:54;;;;;;;4.47;4.07;;;17.10;99.90;19.40;102075.00;;;;5033984;28;20274;-68
2023/04/29 15:55:33;;;;;;;0.10;0.10;;;16.70;99.90;19.10;102092.00;;;;5047313;28;20179;-68
2023/04/29 15:58:24;;;;;;;0.57;0.57;;;16.20;99.90;20.20;102016.00;;;;5044918;28;20193;-68
2023/04/29 16:01:01;;;;;;;2.37;2.17;;;16.40;99.90;19.00;102077.00;;;;5035042;28;20205;-68
2023/04/29 16:03:52;;;;;;;2.40;2.20;;;16.30;99.90;19.80;102060.00;;;;5054293;28;20186;-68
2023/04/29 16:06:26;;;;;;;0.57;0.57;;;16.40;99.90;20.40;102041.00;;;;5054265;28;20191;-68
2023/04/29 16:08:56;;;;;;;2.10;1.90;;;16.80;99.90;19.40;102069.00;;;;5050644;28;20314;-68
2023/04/29 16:11:30;;;;;;;4.17;1.80;;;16.70;99.90;19.90;102052.00;;;;5052633;28;20179;-68
2023/04/29 16:14:20;;;;;;;2.43;1.70;;;16.60;99.90;19.70;102051.00;;;;5055194;28;20722;-68
2023/04/29 16:17:27;;;;;;;1.10;1.03;;;16.50;99.90;20.40;102054.00;;;;5054049;28;20640;-68
2023/04/29 16:19:56;;;;;;;1.43;1.33;;;16.90;99.90;19.50;102067.00;;;;5052520;28;20179;-68
2023/04/29 16:22:30;;;;;;;0.50;0.50;;;16.50;99.90;20.50;102059.00;;;;5054218;28;20188;-68
2023/04/29 16:25:10;;;;;;;2.50;2.30;;;16.70;99.90;20.10;102052.00;;;;5054035;28;20266;-68
2023/04/29 16:27:54;;;;;;;1.87;1.67;;;16.90;99.90;19.40;102064.00;;;;5052913;28;20954;-68
2023/04/29 16:30:31;;;;;;;0.47;0.47;;;16.60;99.90;19.60;102004.00;;;;5045518;28;20199;-68
2023/04/29 16:33:24;;;;;;;2.63;1.23;;;16.50;99.90;19.60;102050.00;;;;5052944;28;20215;-68
2023/04/29 16:35:50;;;;;;;0.30;0.30;;;16.30;99.90;18.60;102040.00;;;;5055275;28;20195;-68
2023/04/29 16:38:25;;;;;;;0.97;0.97;;;15.80;99.90;18.30;102022.00;;;;5053662;28;20212;-68
2023/04/29 16:40:56;;;;;;;0.40;0.40;;;15.70;99.90;18.10;102000.00;;;;5069030;28;20196;-68
2023/04/29 16:43:28;;;;;;;1.43;0.40;;;15.40;99.90;17.60;101934.00;;;;5053394;28;20562;-68
2023/04/29 16:45:58;;;;;;;2.60;0.67;;;15.10;99.90;17.70;101965.00;;;;5053972;28;20381;-68
2023/04/29 16:48:27;;;;;;;1.27;1.17;;;15.20;99.90;18.20;101967.00;;;;5052870;28;20195;-68
2023/04/29 16:51:01;;;;;;;1.07;1.07;;;15.30;99.90;17.70;101963.00;;;;5054099;28;20647;-68
2023/04/29 16:53:32;;;;;;;2.87;2.60;;;15.30;99.90;18.10;101959.00;;;;5053382;28;20204;-68
2023/04/29 16:56:18;;;;;;;4.27;2.30;;;15.20;99.90;17.70;101955.00;;;;5052566;28;20514;-68
2023/04/29 16:58:54;;;;;;;1.63;1.53;;;15.20;99.90;17.20;101950.00;;;;5053386;28;20215;-68
2023/04/29 17:01:32;;;;;;;6.23;3.83;;;14.90;99.90;18.10;101955.00;;;;5052603;28;20559;-68
2023/04/29 17:04:18;;;;;;;1.63;1.53;;;15.10;99.90;18.00;101930.00;;;;5036174;28;20187;-68
2023/04/29 17:07:04;;;;;;;1.90;1.43;;;15.20;99.90;18.00;101970.00;;;;5052815;28;20187;-68
2023/04/29 17:09:38;;;;;;;2.97;2.07;;;15.20;99.90;18.20;101957.00;;;;5049818;28;20267;-68
2023/04/29 17:12:11;;;;;;;0.73;0.73;;;15.20;99.90;18.20;101979.00;;;;5032586;28;20203;-68
2023/04/29 17:14:58;;;;;;;2.73;2.03;;;15.40;99.90;18.60;101982.00;;;;5052643;28;20233;-68
2023/04/29 17:17:36;;;;;;;0.37;0.37;;;15.30;99.90;18.50;101986.00;;;;5051917;28;20754;-68
2023/04/29 17:20:25;;;;;;;4.00;2.67;;;15.50;99.90;18.40;101950.00;;;;5052771;28;20193;-68
2023/04/29 17:22:54;;;;;;;0.50;0.50;;;15.50;99.90;17.90;101976.00;;;;5033516;28;20704;-67
2023/04/29 17:26:04;;;;;;;0.47;0.47;;;15.10;99.90;18.70;101947.00;;;;5069562;28;20192;-68
2023/04/29 17:28:53;;;;;;;3.03;2.83;;;15.20;99.90;17.60;101992.00;;;;5047217;28;20208;-68
2023/04/29 17:31:32;;;;;;;0.30;0.30;;;15.10;99.90;18.20;101989.00;;;;5035117;28;20210;-68
2023/04/29 17:34:17;;;;;;;2.63;2.50;;;15.10;99.90;17.00;101984.00;;;;5052570;28;20530;-68
2023/04/29 17:36:56;;;;;;;2.73;1.33;;;14.70;99.90;17.20;101961.00;;;;5053530;28;20251;-68
2023/04/29 17:39:36;;;;;;;1.13;1.13;;;14.70;99.90;17.00;101988.00;;;;5052163;28;20519;-68
2023/04/29 17:42:22;;;;;;;3.83;1.70;;;14.60;99.90;16.60;101965.00;;;;5043139;28;20192;-68
2023/04/29 17:45:06;;;;;;;0.53;0.53;;;14.50;99.90;17.80;101973.00;;;;5052512;28;20249;-68
2023/04/29 17:47:37;;;;;;;2.73;1.70;;;14.60;99.90;17.60;101971.00;;;;5045457;28;20186;-68
2023/04/29 17:50:14;;;;;;;0.83;0.80;;;14.70;99.90;17.40;101965.00;;;;5050041;28;20230;-67
2023/04/29 17:52:47;;;;;;;0.93;0.93;;;14.80;99.90;17.40;101988.00;;;;5053708;28;20278;-67
2023/04/29 17:55:19;;;;;;;2.33;2.23;;;14.70;99.90;17.50;101984.00;;;;5052309;28;20188;-67
2023/04/29 17:57:52;;;;;;;0.67;0.67;;;14.60;99.90;18.30;101967.00;;;;5048716;28;20235;-68
2023/04/29 18:00:25;;;;;;;0.10;0.10;;;14.80;99.90;18.70;102005.00;;;;5045538;28;20190;-68
2023/04/29 18:02:57;;;;;;;6.80;2.17;;;15.10;99.90;18.50;102005.00;;;;5042207;28;20188;-68
2023/04/29 18:05:23;;;;;;;4.00;3.70;;;15.10;99.90;18.20;102004.00;;;;5052862;28;20196;-68
2023/04/29 18:07:56;;;;;;;1.37;1.27;;;15.00;99.90;17.50;102022.00;;;;5053396;28;20543;-68
2023/04/29 18:10:27;;;;;;;2.97;2.67;;;14.90;99.90;17.80;102010.00;;;;5049021;28;20220;-68
2023/04/29 18:12:56;;;;;;;0.40;0.40;;;14.70;99.90;17.90;101993.00;;;;5043393;28;20210;-68
2023/04/29 18:15:24;;;;;;;0.40;0.40;;;14.70;99.90;17.50;101941.00;;;;5031650;28;20669;-68
2023/04/29 18:17:55;;;;;;;2.30;2.10;;;14.60;99.90;17.80;101980.00;;;;5049133;28;20180;-68
2023/04/29 18:20:27;;;;;;;0.80;0.80;;;14.50;99.90;17.30;101992.00;;;;5048770;28;20199;-68
2023/04/29 18:23:13;;;;;;;0.20;0.20;;;14.40;99.90;17.90;101998.00;;;;5050090;28;20683;-68
2023/04/29 18:25:44;;;;;;;1.03;0.93;;;14.50;99.90;17.40;101958.00;;;;5051851;28;20196;-68
2023/04/29 18:28:33;;;;;;;0.10;0.10;;;14.40;99.90;17.40;102011.00;;;;5052931;28;20188;-68
2023/04/29 18:31:18;;;;;;;0.40;0.40;;;14.40;99.90;18.10;101997.00;;;;5043881;28;20181;-68
2023/04/29 18:34:07;;;;;;;1.50;1.20;;;14.40;99.90;17.20;102010.00;;;;5052650;28;20193;-67
2023/04/29 18:36:33;;;;;;;5.00;1.50;;;14.40;99.90;16.70;102003.00;;;;5050268;28;20306;-67
2023/04/29 18:39:04;;;;;;;0.40;0.40;;;14.10;99.90;17.40;101996.00;;;;5051841;28;20229;-67
2023/04/29 18:41:40;;;;;;;1.90;1.47;;;14.10;99.90;17.30;102011.00;;;;5051907;28;20219;-67
2023/04/29 18:44:14;;;;;;;0.20;0.20;;;14.10;99.90;17.30;102000.00;;;;5051109;28;20260;-67
2023/04/29 18:46:45;;;;;;;0.40;0.40;;;14.00;99.90;17.20;101996.00;;;;5051817;28;20190;-67
2023/04/29 18:49:14;;;;;;;0.10;0.10;;;14.00;99.90;17.50;102001.00;;;;5049536;28;20191;-67
2023/04/29 18:51:48;;;;;;;0.20;0.20;;;14.00;99.90;17.30;102018.00;;;;5051852;28;20232;-67
2023/04/29 18:54:17;;;;;;;0.40;0.40;;;14.00;99.90;16.90;102016.00;;;;5053599;28;20251;-67
2023/04/29 18:56:49;;;;;;;0.10;0.10;;;14.00;99.90;17.30;101982.00;;;;5056907;28;20178;-67
2023/04/29 18:59:20;;;;;;;0.20;0.20;;;13.90;99.90;17.10;102009.00;;;;5056501;28;20198;-67
2023/04/29 19:01:49;;;;;;;0.20;0.20;;;13.90;99.90;17.80;101993.00;;;;5055350;28;20189;-67
2023/04/29 19:04:20;;;;;;;0.77;0.77;;;14.00;99.90;17.90;102019.00;;;;5055584;28;20204;-67
2023/04/29 19:06:49;;;;;;;0.20;0.20;;;14.30;99.90;17.80;102025.00;;;;5055262;28;20178;-67
2023/04/29 19:09:20;;;;;;;0.10;0.10;;;14.10;99.90;17.90;102029.00;;;;5055393;28;20189;-67
2023/04/29 19:11:49;;;;;;;0.60;0.60;;;14.30;99.90;17.40;101985.00;;;;5027607;28;20607;-67
2023/04/29 19:14:20;;;;;;;0.10;0.10;;;14.10;99.90;18.00;102040.00;;;;5071592;28;20203;-68
2023/04/29 19:16:54;;;;;;;0.33;0.33;;;14.10;99.90;17.30;102044.00;;;;5055177;28;20217;-67
2023/04/29 19:19:40;;;;;;;0.10;0.10;;;14.00;99.90;16.90;102029.00;;;;5051994;28;20302;-67
2023/04/29 19:22:13;;;;;;;1.97;1.87;;;13.70;99.90;16.90;102017.00;;;;5038278;28;20185;-67